Joaquín Paz

Chefscout - Independiente Rivadavia
5 Dez 2027
Sonntag
Verarbeitung

Persönlichkeit

Anpassungsfähigkeit (5) Ehrgeiz (5) Kontroverse (1) Loyalität (12) Druck (17) Professionalität (2) Fairness (16) Temperament (10)

Profil

Trainerstil Demokratisch
Lizenz Kontinentale A
Entschlossenheit 9
Menschenführung 9
Motivation 11
Disziplin 6
Arbeitszufriedenheit
100%
Ermüdung
0%
Rolle Chefscout
Gehalt 67.0K p/W
Vertrag 14.03.2030

Leistung

Verhalten Gut
Trainingseffektivität
41%
Spielerentwicklung
60%
Verletzungsprävention
30%
Taktische Umsetzung
20%

Letzte Ereignisse

Nahm an einer Scouting-Besprechung teil jetzt
Empfahl ein Transferziel jetzt
Empfahl ein Transferziel jetzt
Empfahl ein Transferziel jetzt
Nahm an einer Scouting-Besprechung teil jetzt
Nahm an einer Scouting-Besprechung teil jetzt
Legte dem Vorstand ein Dossier vor jetzt
Nahm an einer Scouting-Besprechung teil 7T her

Aktuell beobachtet

229
Spieler Verein Status Fähigkeit Vertrauen Beobachtet Zuletzt beobachtet Letzte Stimme
Caio Vidal Fatih Karagumruk Bericht bereit 128 / 129 63% 1 01.12.2027 Befürworten
Julián Gurzi Quilmes Aktiv 107 / 98 76% 1 14.06.2027 Befürworten
Domagoj Bradarić Hellas Verona Aktiv 138 / 130 40% 5 30.05.2027 -
Adrià Altimira Deportivo La Coruña Aktiv 131 / 136 40% 9 29.05.2027 -
Stanley Mills Oxford United Aktiv 125 / 119 40% 6 29.05.2027 -
Ramiro Hernandes Cagliari Aktiv 126 / 129 40% 4 28.05.2027 -
Lennon Miller AC Milan Aktiv 124 / 134 40% 3 28.05.2027 -
Estanis Pedrola Oviedo Aktiv 117 / 131 40% 3 28.05.2027 -
Kyle Joseph Middlesbrough Aktiv 119 / 122 40% 5 24.05.2027 -
Mateo Bajamich Atlético Tucumán Aktiv 128 / 125 40% 1 24.05.2027 -
Federico Redondo Elche Aktiv 126 / 120 40% 3 23.05.2027 -
Guille Rosas Gijón Aktiv 138 / 146 40% 2 20.05.2027 -
Yussif Saidu Zaragoza Aktiv 116 / 136 40% 4 18.05.2027 -
Nicolás Garayalde Liverpool Montevideo Aktiv 116 / 119 40% 7 16.05.2027 -
Dylan Aquino Lanús Aktiv 129 / 124 40% 1 16.05.2027 -
Lorenzo Amatucci Deportivo La Coruña Aktiv 141 / 131 40% 1 13.05.2027 -
Jeremía Recoba Racing Santander Aktiv 122 / 126 40% 2 12.05.2027 -
Geovany Quenda Chelsea Aktiv 147 / 151 40% 1 11.05.2027 -
Brayann Pereira West Bromwich Albion Aktiv 128 / 122 40% 2 09.05.2027 -
Miguel Rodríguez Caracas Aktiv 134 / 133 40% 2 07.05.2027 -
Jonathan De Irastorza Levante Aktiv 124 / 120 40% 7 06.05.2027 -
Reda Khadra Qarabag Aktiv 142 / 122 40% 2 05.05.2027 -
Álvaro Rodríguez Bournemouth Aktiv 133 / 143 40% 1 05.05.2027 -
Luka Romero Cruz Azul Aktiv 132 / 133 40% 5 04.05.2027 -
Harrison Armstrong Hull City Aktiv 135 / 142 40% 1 27.04.2027 -
Brian Cordoba Cortulua Aktiv 122 / 118 40% 1 27.04.2027 -
Xavier Biscayzacú Gimnasia La Plata Aktiv 125 / 132 40% 1 26.04.2027 -
Ro-Zangelo Daal AZ Aktiv 126 / 119 40% 1 25.04.2027 -
Nicolò Radaelli Mantova Aktiv 109 / 122 40% 2 20.04.2027 -
Luis Quintero Torreense Aktiv 119 / 114 40% 1 13.04.2027 -
Thalys Almería Aktiv 119 / 116 40% 1 12.04.2027 -
Lautaro Vargas Osasuna Aktiv 121 / 128 40% 2 10.04.2027 -
Michel Ndary Adopo Cagliari Aktiv 133 / 141 40% 2 10.04.2027 -
Tshepang Moremi Orlando Pirates Aktiv 115 / 121 40% 3 09.04.2027 -
Álex Centelles Levski Aktiv 132 / 131 40% 2 07.04.2027 -
Rubens Dinamo Moscow Aktiv 127 / 121 40% 2 05.04.2027 -
Danil Glebov Dinamo Moscow Aktiv 128 / 133 40% 2 04.04.2027 -
Relebohile Mofokeng Orlando Pirates Aktiv 114 / 129 40% 2 04.04.2027 -
Rivaldo Mouscron Aktiv 133 / 134 40% 2 31.03.2027 -
Marcelo Allende Mamelodi Sundowns Aktiv 128 / 121 40% 3 30.03.2027 -
Santiago Hidalgo Toulouse FC Aktiv 117 / 135 40% 1 30.03.2027 -
Moussa Yeo Swansea City Aktiv 112 / 120 40% 1 28.03.2027 -
Armstrong Oko-Flex Levski Aktiv 122 / 119 40% 1 28.03.2027 -
Oswin Appollis Orlando Pirates Aktiv 115 / 113 40% 1 23.03.2027 -
Filip Kaloč Ludogorets Aktiv 123 / 132 40% 1 22.03.2027 -
Oliver Arblaster Sheffield United Aktiv 128 / 132 40% 2 21.03.2027 -
Petar Stanić Ludogorets Aktiv 143 / 144 40% 2 20.03.2027 -
Haissem Hassan Bloemfontein Celtic Aktiv 134 / 131 40% 5 18.03.2027 -
Ralph Orquin Cruz Azul Aktiv 127 / 125 40% 3 18.03.2027 -
Jalen Blesa Rio Ave Aktiv 112 / 127 40% 2 15.03.2027 -
Baïla Diallo Granada Aktiv 110 / 112 40% 1 14.03.2027 -
Lechi Sadulaev Akhmat Grozny Aktiv 124 / 124 40% 1 10.03.2027 -
Léo Pereira CSKA Sofia Aktiv 125 / 117 40% 2 07.03.2027 -
Bobby Clark Derby County Aktiv 125 / 133 40% 1 06.03.2027 -
Ronald Swansea City Aktiv 134 / 133 40% 1 04.03.2027 -
Othmane Maamma Watford Aktiv 127 / 125 40% 2 28.02.2027 -
Tom Fellows Southampton Aktiv 128 / 141 40% 1 28.02.2027 -
Milan van Ewijk Coventry City Aktiv 124 / 122 40% 2 27.02.2027 -
Mohamed Belloumi Hull City Aktiv 140 / 139 40% 2 24.02.2027 -
Matt O'Riley Blackburn Rovers Aktiv 144 / 144 40% 2 24.02.2027 -
Ali Ahmed Norwich City Aktiv 120 / 120 40% 1 24.02.2027 -
Habib Diarra Sunderland Aktiv 132 / 148 40% 1 21.02.2027 -
Thiago Almada Liverpool Aktiv 138 / 140 40% 2 20.02.2027 -
Cian Ashford Cardiff City Aktiv 120 / 124 40% 2 15.02.2027 -
Harry Clarke Preston Aktiv 126 / 128 40% 1 15.02.2027 -
Tyrese Campbell Sheffield United Aktiv 124 / 129 40% 3 14.02.2027 -
Welington Southampton Aktiv 136 / 131 40% 1 13.02.2027 -
Zakaria Aboukhlal Torino Aktiv 126 / 144 40% 1 13.02.2027 -
Andre Brooks Sheffield United Aktiv 123 / 122 40% 1 09.02.2027 -
Issa Kaboré Wrexham Aktiv 136 / 133 40% 2 08.02.2027 -
Kristoffer Lund Birmingham Aktiv 136 / 137 40% 1 08.02.2027 -
Santiago Pierotti Lecce Aktiv 139 / 135 40% 2 07.02.2027 -
Rumarn Burrell Queens Park Rangers Aktiv 130 / 123 40% 1 07.02.2027 -
Jacques Ekomié Wrexham Aktiv 120 / 133 40% 1 01.02.2027 -
Leif Davis Ipswich Town Aktiv 141 / 127 40% 1 02.12.2026 -
Santiago González Tigre Aktiv 121 / 135 40% 1 02.12.2026 -
Edoardo Bove Watford Aktiv 134 / 127 40% 1 02.12.2026 -
Sampson Dweh Lokomotiv Moscow Verhandlung 133 / 134 66% 1 01.12.2026 Befürworten
Stanislav Agkatsev CSKA Moscow Verhandlung 132 / 133 66% 1 01.12.2026 Befürworten
Alan Lescano Argentinos Juniors Aktiv 123 / 125 40% 1 30.11.2026 -
Tomás Jacob Atlanta United FC Aktiv 125 / 129 40% 2 29.11.2026 -
Mariano Gómez Ferencvaros Aktiv 113 / 124 40% 4 29.11.2026 Beobachten
Federico Gattoni Ascoli Aktiv 124 / 128 40% 2 29.11.2026 -
Lautaro Petruchi Gimnasia y Esgrima Aktiv 115 / 115 40% 3 28.11.2026 -
Facundo Cambeses Racing Club Aktiv 122 / 128 40% 1 28.11.2026 -
Andrés Herrera Columbus Crew Aktiv 116 / 118 40% 3 26.11.2026 -
Emanuel Coronel Rosario Central Aktiv 131 / 130 40% 2 26.11.2026 -
Ezequiel Neira Carabobo Aktiv 108 / 108 40% 5 25.11.2026 -
Rafael Profini Metalist Aktiv 110 / 130 40% 1 25.11.2026 -
Tobías Bovone Deportivo Pereira Aktiv 106 / 105 40% 5 24.11.2026 -
Nahuel Furtado Wanderers Aktiv 124 / 124 40% 3 24.11.2026 Beobachten
Radek Vítek Middlesbrough Aktiv 124 / 129 40% 1 24.11.2026 -
Franco Herrera Almería Aktiv 99 / 95 40% 1 24.11.2026 -
Joaquín Silva Plaza Colonia Aktiv 110 / 109 40% 4 23.11.2026 -
Arijanet Murić Sassuolo Aktiv 138 / 140 40% 1 23.11.2026 -
Emiliano Álvarez Progreso Aktiv 125 / 116 40% 2 22.11.2026 -
Germán Barrios Defensor Sporting Aktiv 110 / 110 40% 1 22.11.2026 -
Alan García Wanderers Aktiv 113 / 110 40% 1 22.11.2026 -
Gonzalo Silva Progreso Aktiv 104 / 111 40% 4 20.11.2026 -
Gonzalo Gamarra Floriana Aktiv 105 / 92 40% 1 20.11.2026 -
Miguel Romano Atletico Venezuela Aktiv 106 / 112 40% 2 19.11.2026 -
Facundo Mura Inter Miami CF Aktiv 121 / 117 40% 8 18.11.2026 -
Emanuel Cecchini Juventud Aktiv 110 / 114 40% 4 18.11.2026 -
Pablo Ruiz Real Salt Lake Aktiv 110 / 119 40% 2 17.11.2026 -
Nicolás Fernández Penarol Aktiv 122 / 127 40% 3 17.11.2026 -
Luciano Inverso Rentistas Aktiv 111 / 112 40% 1 17.11.2026 -
Kaio Eduardo Basel Aktiv 106 / 117 40% 1 17.11.2026 -
Juan Moreno La Luz Aktiv 115 / 118 40% 2 15.11.2026 -
Leandro Lozano Boca Juniors Aktiv 133 / 130 40% 2 15.11.2026 -
Pablo Ibañez Alavés Aktiv 135 / 124 40% 1 15.11.2026 -
Facundo Garcés Alavés Aktiv 125 / 121 40% 1 15.11.2026 -
Egoitz Arana Real Sociedad Aktiv 103 / 105 40% 1 15.11.2026 -
Agustín Quiroz Cerro Largo Aktiv 93 / 88 40% 3 14.11.2026 -
Nicolás Forastiero Deportivo Maldonado Aktiv 104 / 96 40% 4 14.11.2026 -
Santiago Coronel Potenza Aktiv 91 / 86 40% 1 14.11.2026 -
Rafael Sangiovani Metropolitanos Aktiv 105 / 98 40% 3 12.11.2026 -
Enzo Vázquez Central Norte Aktiv 104 / 113 40% 1 12.11.2026 -
Mauro Villar Cerro Aktiv 94 / 103 40% 2 10.11.2026 -
Mateo Rinaldi Danubio Aktiv 112 / 108 40% 2 10.11.2026 -
Alejo Macelli Cerro Aktiv 105 / 106 40% 4 09.11.2026 -
Martín Ojeda Orlando City Aktiv 129 / 144 40% 2 09.11.2026 -
Kwadwo Baah Watford Aktiv 131 / 120 40% 1 09.11.2026 -
Nicolás Domínguez Nottingham Forest Aktiv 148 / 147 40% 1 09.11.2026 -
Francisco Casanova Cerrito Aktiv 101 / 107 40% 1 09.11.2026 -
Nicolás Sumavil Platense Aktiv 110 / 121 40% 1 09.11.2026 -
Segundo Pachamé Plaza Colonia Aktiv 104 / 101 40% 3 07.11.2026 -
Julián Illanes Carrarese Aktiv 129 / 121 40% 1 07.11.2026 -
Santiago Homenchenko Queretaro Aktiv 114 / 114 40% 1 07.11.2026 -
Agustín Aguirre Boston River Aktiv 104 / 105 40% 2 04.11.2026 -
Nicolás Chaves AS Roma Aktiv 116 / 109 40% 2 04.11.2026 -
Juan Saborido Platense Aktiv 126 / 130 40% 1 03.11.2026 -
Adriano Freitas Deportivo Maldonado Aktiv 107 / 102 40% 2 02.11.2026 -
Diego Enríquez Sporting Cristal Aktiv 132 / 126 40% 1 02.11.2026 -
Emiliano González Almagro Aktiv 124 / 109 40% 1 02.11.2026 -
Agustín Buffa Wanderers Aktiv 99 / 98 40% 2 01.11.2026 -
Ignacio Colombo Estudiantes de Caracas Aktiv 90 / 90 40% 2 01.11.2026 -
Tabaré Benítez Casertana Aktiv 92 / 91 40% 1 01.11.2026 -
Alex Woiski Deportivo Tachira Aktiv 92 / 92 40% 1 30.10.2026 -
Maximiliano Centurión Sportivo Trinidense Aktiv 105 / 100 40% 3 28.10.2026 -
David Ayala Inter Miami CF Aktiv 112 / 120 40% 4 27.10.2026 -
Emiliano Márquez Central Espanol Aktiv 103 / 98 40% 2 27.10.2026 -
Omar Carabalí O'Higgins Aktiv 107 / 102 40% 2 27.10.2026 -
César Ibáñez Huracán Aktiv 132 / 119 40% 1 26.10.2026 -
Aldo Pérez Guarani Aktiv 103 / 117 40% 1 25.10.2026 -
Renato Solís Sporting Cristal Aktiv 121 / 122 40% 1 25.10.2026 -
Anthony Patterson Wrexham Aktiv 129 / 126 40% 1 25.10.2026 -
Eduardo Darias Penarol Aktiv 136 / 123 40% 4 20.10.2026 -
Juan Díaz Universidad Catolica Aktiv 107 / 116 40% 3 20.10.2026 -
Lautaro Lusnig Deportivo Tachira Aktiv 106 / 107 40% 5 19.10.2026 -
Zacarías López Iquique Aktiv 105 / 97 40% 1 19.10.2026 -
Lucas Villagra Las Palmas Aktiv 93 / 96 40% 1 19.10.2026 -
Fredy Martínez Boston River Aktiv 103 / 102 40% 1 19.10.2026 -
Juan Manuel Requena Universitario Aktiv 115 / 104 40% 1 19.10.2026 -
Santiago Cáseres Colo-Colo Aktiv 120 / 125 40% 1 15.10.2026 -
Nicolás Kozlovsky Oriental Aktiv 111 / 109 40% 5 14.10.2026 -
Nahuel Herrera Penarol Aktiv 122 / 123 40% 2 14.10.2026 -
Mauro Casoli Talleres Aktiv 102 / 95 40% 1 14.10.2026 -
Franco Carretero Deportivo Lara Aktiv 93 / 104 40% 1 14.10.2026 -
Tomás Lingua Cerro Largo Aktiv 100 / 96 40% 1 14.10.2026 -
Juan Ignacio Méndez Instituto Aktiv 121 / 111 40% 1 12.10.2026 -
Edgar Elizalde Defensor Sporting Aktiv 116 / 114 40% 1 12.10.2026 -
Miguel Brizuela O'Higgins Aktiv 114 / 115 40% 4 11.10.2026 -
Franco Ortellado Sol de America Aktiv 103 / 105 40% 2 11.10.2026 -
Ihojan Pérez Cerro Largo Aktiv 98 / 99 40% 1 11.10.2026 -
Bautista Pereira Danubio Aktiv 85 / 95 40% 1 11.10.2026 -
Alejo Antilef Napoli Aktiv 119 / 119 40% 1 09.10.2026 -
Facundo Coelli Sheffield United Aktiv 102 / 96 40% 1 09.10.2026 -
Juan Bisanz Huracán Aktiv 134 / 124 40% 1 09.10.2026 -
Rodrigo Morínigo Libertad Aktiv 118 / 120 40% 1 07.10.2026 -
Agustín Maidana San Marcos de Arica Aktiv 98 / 110 40% 3 05.10.2026 -
Juan Gutierrez Veracruz Aktiv 128 / 136 40% 1 05.10.2026 -
Michael Carcelén Queretaro Aktiv 118 / 110 40% 1 05.10.2026 -
Willer Ditta Cruz Azul Aktiv 142 / 125 40% 2 04.10.2026 -
Manuel Tasso Universidad Catolica Aktiv 95 / 99 40% 1 04.10.2026 -
Federico Bonansea San Martín SJ Aktiv 97 / 109 40% 1 04.10.2026 -
Facundo Velazco San Marcos de Arica Aktiv 110 / 106 40% 1 04.10.2026 -
Jhohan Romaña Leon Aktiv 137 / 123 40% 1 04.10.2026 -
Kevin Palacios Santos Laguna Aktiv 113 / 107 40% 2 03.10.2026 -
Rodrigo Villalba Libertad Aktiv 97 / 104 40% 1 30.09.2026 -
Luís Esteves Atlas Aktiv 122 / 132 40% 1 28.09.2026 -
Ignacio Gonella Central Espanol Aktiv 90 / 85 40% 1 27.09.2026 -
Pablo Suárez Rentistas Aktiv 86 / 94 40% 1 27.09.2026 -
Pablo Siles Montevideo City Torque Aktiv 122 / 113 40% 1 27.09.2026 -
Gonzalo Luján Inter Miami CF Aktiv 128 / 131 40% 1 26.09.2026 -
Juan Fernando Alfaro Olimpia Aktiv 113 / 108 40% 3 25.09.2026 -
Joel Torres San Luis Aktiv 88 / 93 40% 2 25.09.2026 -
Enzo Giménez Queretaro Aktiv 114 / 119 40% 1 25.09.2026 -
Franco Romero Toluca Aktiv 124 / 119 40% 2 23.09.2026 -
Jhon Gamboa Envigado Aktiv 121 / 112 40% 1 23.09.2026 -
Rodrigo Cáseres Union La Calera Aktiv 108 / 112 40% 4 21.09.2026 -
Eber Moreno Deportivo Pereira Aktiv 118 / 117 40% 1 20.09.2026 -
Carlos Moreno Pachuca Aktiv 127 / 123 40% 1 19.09.2026 -
Fernando Beltrán Leon Aktiv 125 / 134 40% 1 19.09.2026 -
Roberto Vazquez Veracruz Aktiv 119 / 129 40% 1 19.09.2026 -
Franco Pardo Santos Laguna Aktiv 131 / 121 40% 8 18.09.2026 -
Juan Pablo Salomoni Union La Calera Aktiv 112 / 101 40% 2 18.09.2026 -
Bruno Amione Santos Laguna Aktiv 130 / 131 40% 3 16.09.2026 -
Agustín Requena Progreso Aktiv 104 / 106 40% 3 16.09.2026 -
Juan Pereyra Veracruz Aktiv 155 / 167 40% 4 16.09.2026 -
Fernando Alonso Cruz Azul Aktiv 108 / 100 40% 4 16.09.2026 -
Mateo Garavito Deportivo Pasto Aktiv 115 / 117 40% 1 15.09.2026 -
Santiago Toloza O'Higgins Aktiv 120 / 121 40% 1 15.09.2026 -
Felipe Serrés Wanderers Aktiv 89 / 108 40% 2 13.09.2026 -
Patrick Preciado Deportivo Pasto Aktiv 106 / 112 40% 1 13.09.2026 -
Alan Robledo O'Higgins Aktiv 113 / 101 40% 2 12.09.2026 -
Javier Mena Aguilas Doradas Aktiv 114 / 123 40% 1 12.09.2026 -
Sebastián Lentinelly Olimpia Aktiv 101 / 111 40% 2 09.09.2026 -
José Ortiz Atletico Bucaramanga Aktiv 117 / 124 40% 1 06.09.2026 -
Andrés Gudiño Cruz Azul Aktiv 114 / 109 40% 1 06.09.2026 -
Matías Medina Sportivo Luqueno Aktiv 88 / 98 40% 1 06.09.2026 -
Iovan Roganovich Sportivo Trinidense Aktiv 75 / 86 40% 1 06.09.2026 -
Erik de los Santos Racing Aktiv 109 / 109 40% 1 03.09.2026 -
Adonis Frías Atlas Aktiv 132 / 136 40% 3 31.08.2026 -
Jean Carlos Pestaña Junior Aktiv 115 / 116 40% 1 30.08.2026 -
Williams Barlasina Fortaleza CEIF Aktiv 107 / 105 40% 1 29.08.2026 -
Diego Chávez Deportivo Pasto Aktiv 110 / 116 40% 2 27.08.2026 -
Axel Frugone Defensor Sporting Aktiv 120 / 126 40% 1 25.08.2026 -
Bryan Rovira Deportes Tolima Aktiv 119 / 114 40% 1 23.08.2026 -
Tobías Reinhart Universidad de Chile Aktiv 125 / 119 40% 1 23.08.2026 -
Elías Báez Atlanta United FC Aktiv 129 / 125 40% 1 22.08.2026 -
Milton Valenzuela Atlas Aktiv 127 / 124 40% 1 20.08.2026 -
Gabriel Chocobar Oriental Aktiv 92 / 104 40% 2 18.08.2026 -
Luciano Minhondo Uruguay Montevideo Aktiv 93 / 90 40% 1 16.08.2026 -
Lucas Bruera Carabobo Aktiv 124 / 114 40% 1 15.08.2026 -
Yílmar Velásquez Santa Fe Aktiv 112 / 119 40% 1 13.08.2026 -
Nicolás Campisi Sportivo Luqueno Aktiv 116 / 115 40% 1 08.08.2026 -
Álvaro Cazula San Marcos de Arica Aktiv 100 / 104 40% 2 06.08.2026 -
Enzo Ortiz River Plate Aktiv 100 / 99 40% 1 05.08.2026 -
Roameth Romaña Llaneros Aktiv 97 / 94 40% 1 04.08.2026 -